Terminal Aerodrome Forecast
Issued by NWS

Home | Current Version | Previous Version | Text Only | Print | Product List | Glossary On
Versions: 1 2 3 4 5 6 7 8 9 10 11 12 13 14 15 16 17 18 19 20 21 22 23 24 25 26 27 28 29 30 31 32
000
FTUS43 KDLH 202300
TAFHIB
TAF
KHIB 202337Z 2100/2124 15003KT P6SM OVC040
     FM210200 13004KT P6SM SCT040 BKN250
     FM210700 VRB03KT 3SM BR SCT008 OVC012
     FM211000 00000KT 1 1/2SM BR SCT004 OVC012
     FM211500 10005KT P6SM VCSH OVC015 PROB30 2118/2124 -TSRA
      BKN050CB=

USA.gov is the U.S. government's official web portal to all federal, state and local government web resources and services.